createdAt,value
2023-05-16T00:04:23.814Z,98225.52
2023-05-16T00:09:25.722Z,98232.27
2023-05-16T00:14:28.393Z,98233.52
2023-05-16T00:19:30.206Z,98231.33
2023-05-16T00:24:34.229Z,98227.60
2023-05-16T00:29:35.961Z,98228.48
2023-05-16T00:34:37.695Z,98226.13
2023-05-16T00:39:39.525Z,98224.64
2023-05-16T00:44:41.514Z,98223.78
2023-05-16T00:49:43.812Z,98232.88
2023-05-16T00:54:45.658Z,98227.23
2023-05-16T00:59:48.512Z,98217.45
2023-05-16T01:04:51.873Z,98210.41
2023-05-16T01:09:53.862Z,98215.89
2023-05-16T01:15:32.354Z,98216.56
2023-05-16T01:20:57.034Z,98216.39
2023-05-16T01:26:25.068Z,98213.45
2023-05-16T01:31:26.787Z,98208.13
2023-05-16T01:37:00.414Z,98212.02
2023-05-16T01:42:09.122Z,98215.62
2023-05-16T01:47:16.741Z,98214.23
2023-05-16T01:52:56.715Z,98215.75
2023-05-16T01:58:01.377Z,98215.21
2023-05-16T02:03:03.128Z,98227.86
2023-05-16T02:08:05.662Z,98236.23
2023-05-16T02:13:07.704Z,98237.72
2023-05-16T02:18:10.033Z,98231.72
2023-05-16T02:23:11.718Z,98229.96
2023-05-16T02:28:13.580Z,98230.96
2023-05-16T02:33:15.576Z,98232.64
2023-05-16T02:38:17.603Z,98230.89
2023-05-16T02:43:19.258Z,98233.24
2023-05-16T02:48:21.020Z,98243.14
2023-05-16T02:53:22.723Z,98240.36
2023-05-16T02:58:24.357Z,98231.40
2023-05-16T03:03:26.637Z,98237.34
2023-05-16T03:08:28.419Z,98246.05
2023-05-16T03:13:31.805Z,98247.20
2023-05-16T03:18:33.853Z,98248.05
2023-05-16T03:23:35.543Z,98256.52
2023-05-16T03:28:39.015Z,98266.52
2023-05-16T03:33:40.687Z,98271.73
2023-05-16T03:38:42.626Z,98275.96
2023-05-16T03:43:44.294Z,98270.78
2023-05-16T03:48:46.410Z,98272.51
2023-05-16T03:53:48.060Z,98275.20
2023-05-16T03:58:49.735Z,98275.77
2023-05-16T04:07:13.255Z,98277.42
2023-05-16T04:12:14.994Z,98275.39
2023-05-16T04:17:16.825Z,98275.85
2023-05-16T04:22:21.269Z,98279.88
2023-05-16T04:27:23.525Z,98287.73
2023-05-16T04:32:25.410Z,98294.98
2023-05-16T04:37:27.692Z,98293.36
2023-05-16T04:42:29.410Z,98301.95
2023-05-16T04:47:32.590Z,98310.07
2023-05-16T04:52:34.828Z,98313.02
2023-05-16T04:57:36.561Z,98315.09
2023-05-16T05:02:38.642Z,98308.78
2023-05-16T05:07:40.954Z,98321.21
2023-05-16T05:12:42.717Z,98320.52
2023-05-16T05:17:44.478Z,98326.89
2023-05-16T05:22:46.845Z,98324.73
2023-05-16T05:27:48.626Z,98329.35
2023-05-16T05:32:50.381Z,98331.62
2023-05-16T05:37:52.335Z,98330.63
2023-05-16T05:42:53.987Z,98326.67
2023-05-16T05:47:55.802Z,98327.95
2023-05-16T05:52:57.592Z,98330.18
2023-05-16T05:57:59.493Z,98324.11
2023-05-16T06:03:01.312Z,98327.64
2023-05-16T06:08:02.967Z,98330.74
2023-05-16T06:13:04.627Z,98334.80
2023-05-16T06:18:06.360Z,98337.98
2023-05-16T06:23:08.153Z,98341.48
2023-05-16T06:28:09.860Z,98344.06
2023-05-16T06:33:11.511Z,98346.63
2023-05-16T06:38:13.309Z,98342.67
2023-05-16T06:43:15.132Z,98345.74
2023-05-16T06:48:18.703Z,98343.16
2023-05-16T06:53:20.732Z,98336.11
2023-05-16T06:58:22.474Z,98334.82
2023-05-16T07:03:24.196Z,98340.98
2023-05-16T07:08:26.256Z,98351.95
2023-05-16T07:13:28.164Z,98348.48
2023-05-16T07:18:29.956Z,98338.13
2023-05-16T07:23:32.072Z,98343.49
2023-05-16T07:28:34.522Z,98346.26
2023-05-16T07:33:36.239Z,98354.85
2023-05-16T07:38:38.107Z,98357.17
2023-05-16T07:43:39.873Z,98363.36
2023-05-16T07:48:41.566Z,98371.68
2023-05-16T07:53:43.413Z,98379.58
2023-05-16T07:58:45.580Z,98385.02
2023-05-16T08:03:47.492Z,98392.82
2023-05-16T08:08:49.232Z,98405.45
2023-05-16T08:13:51.153Z,98409.52
2023-05-16T08:18:53.478Z,98400.20
2023-05-16T08:23:55.855Z,98402.70
2023-05-16T08:28:57.527Z,98401.14
2023-05-16T08:33:59.288Z,98411.11
2023-05-16T08:39:01.018Z,98420.14
2023-05-16T08:44:03.014Z,98408.53
2023-05-16T08:49:07.873Z,98396.17
2023-05-16T08:54:13.624Z,98398.49
2023-05-16T08:59:16.326Z,98391.11
2023-05-16T09:04:18.642Z,98389.42
2023-05-16T09:09:20.434Z,98389.67
2023-05-16T09:14:22.213Z,98387.96
2023-05-16T09:19:23.935Z,98385.94
2023-05-16T09:24:26.423Z,98384.53
2023-05-16T09:29:28.180Z,98385.78
2023-05-16T09:34:30.064Z,98383.58
2023-05-16T09:39:31.786Z,98394.30
2023-05-16T09:44:33.765Z,98401.57
2023-05-16T09:49:37.426Z,98397.64
2023-05-16T09:54:39.742Z,98393.23
2023-05-16T09:59:41.715Z,98390.64
2023-05-16T10:04:43.470Z,98385.32
2023-05-16T10:09:46.938Z,98378.66
2023-05-16T10:14:50.426Z,98372.27
2023-05-16T10:19:54.222Z,98377.33
2023-05-16T10:24:55.868Z,98378.41
2023-05-16T10:29:58.742Z,98376.32
2023-05-16T10:35:03.235Z,98377.91
2023-05-16T10:40:07.014Z,98379.54
2023-05-16T10:45:19.834Z,98378.21
2023-05-16T10:50:43.017Z,98376.66
2023-05-16T10:55:59.767Z,98371.25
2023-05-16T11:01:36.307Z,98372.18
2023-05-16T11:06:41.114Z,98367.66
2023-05-16T11:11:54.860Z,98362.58
2023-05-16T11:17:22.094Z,98355.17
2023-05-16T11:22:26.826Z,98345.06
2023-05-16T11:27:34.451Z,98346.54
2023-05-16T11:32:38.029Z,98342.32
2023-05-16T11:37:40.040Z,98346.63
2023-05-16T11:42:47.786Z,98345.69
2023-05-16T11:47:49.890Z,98341.69
2023-05-16T11:52:57.389Z,98342.63
2023-05-16T11:57:59.559Z,98342.30
2023-05-16T12:03:04.590Z,98345.00
2023-05-16T12:08:07.191Z,98342.71
2023-05-16T12:13:09.347Z,98334.63
2023-05-16T12:18:11.875Z,98332.73
2023-05-16T12:23:14.656Z,98329.17
2023-05-16T12:28:16.439Z,98333.34
2023-05-16T12:33:18.138Z,98327.98
2023-05-16T12:38:22.008Z,98321.84
2023-05-16T12:43:23.744Z,98318.41
2023-05-16T12:48:34.121Z,98314.36
2023-05-16T12:53:42.014Z,98308.59
2023-05-16T12:58:44.101Z,98307.58
2023-05-16T13:03:46.009Z,98307.91
2023-05-16T13:08:47.776Z,98308.95
2023-05-16T13:13:49.794Z,98311.48
2023-05-16T13:18:52.349Z,98315.28
2023-05-16T13:23:54.469Z,98312.23
2023-05-16T13:28:56.337Z,98309.40
2023-05-16T13:33:59.035Z,98305.04
2023-05-16T13:39:01.014Z,98299.69
2023-05-16T13:44:02.737Z,98301.79
2023-05-16T13:49:04.525Z,98304.98
2023-05-16T13:54:06.427Z,98316.30
2023-05-16T13:59:10.216Z,98323.69
2023-05-16T14:04:13.377Z,98329.65
2023-05-16T14:09:16.994Z,98338.29
2023-05-16T14:14:18.739Z,98344.44
2023-05-16T14:19:20.862Z,98355.19
2023-05-16T14:24:23.048Z,98345.35
2023-05-16T14:29:25.814Z,98352.23
2023-05-16T14:34:27.638Z,98365.40
2023-05-16T14:39:29.463Z,98374.52
2023-05-16T14:44:31.465Z,98382.26
2023-05-16T14:49:33.298Z,98389.10
2023-05-16T14:54:35.254Z,98397.11
2023-05-16T14:59:37.022Z,98403.69
2023-05-16T15:04:38.809Z,98402.70
2023-05-16T15:09:40.583Z,98395.46
2023-05-16T15:14:42.374Z,98389.23
2023-05-16T15:19:44.200Z,98388.36
2023-05-16T15:24:46.297Z,98384.91
2023-05-16T15:29:48.123Z,98378.42
2023-05-16T15:34:49.901Z,98374.86
2023-05-16T15:39:51.713Z,98374.67
2023-05-16T15:44:53.465Z,98372.47
2023-05-16T15:49:55.136Z,98365.98
2023-05-16T15:54:56.879Z,98360.67
2023-05-16T15:59:58.953Z,98354.71
2023-05-16T16:05:00.825Z,98353.79
2023-05-16T16:10:02.735Z,98358.67
2023-05-16T16:15:06.756Z,98357.38
2023-05-16T16:20:08.923Z,98359.69
2023-05-16T16:25:10.797Z,98371.80
2023-05-16T16:30:12.780Z,98374.44
2023-05-16T16:35:14.994Z,98374.14
2023-05-16T16:40:17.099Z,98380.15
2023-05-16T16:45:20.308Z,98394.48
2023-05-16T16:50:23.197Z,98397.62
2023-05-16T16:55:24.940Z,98401.23
2023-05-16T17:00:27.415Z,98401.72
2023-05-16T17:05:29.361Z,98412.34
2023-05-16T17:10:31.801Z,98416.88
2023-05-16T17:15:33.787Z,98422.98
2023-05-16T17:20:36.453Z,98418.23
2023-05-16T17:25:38.241Z,98414.99
2023-05-16T17:30:40.125Z,98419.16
2023-05-16T17:35:41.920Z,98427.30
2023-05-16T17:40:44.942Z,98428.05
2023-05-16T17:45:47.270Z,98429.66
2023-05-16T17:50:50.093Z,98428.15
2023-05-16T17:55:51.845Z,98428.15
2023-05-16T18:00:54.727Z,98427.64
2023-05-16T18:05:57.062Z,98427.33
2023-05-16T18:10:58.855Z,98434.38
2023-05-16T18:16:00.641Z,98438.15
2023-05-16T18:21:02.951Z,98434.70
2023-05-16T18:26:04.779Z,98435.73
2023-05-16T18:31:06.913Z,98443.84
2023-05-16T18:36:08.668Z,98453.49
2023-05-16T18:41:10.520Z,98457.46
2023-05-16T18:46:12.254Z,98465.05
2023-05-16T18:51:19.341Z,98469.38
2023-05-16T18:56:22.579Z,98466.78
2023-05-16T19:01:25.449Z,98469.19
2023-05-16T19:06:27.335Z,98471.42
2023-05-16T19:11:29.090Z,98476.23
2023-05-16T19:16:30.847Z,98472.94
2023-05-16T19:21:32.605Z,98469.65
2023-05-16T19:26:34.345Z,98467.91
2023-05-16T19:31:36.253Z,98467.37
2023-05-16T19:36:38.217Z,98464.30
2023-05-16T19:41:40.569Z,98461.89
2023-05-16T19:46:42.497Z,98465.17
2023-05-16T19:51:44.223Z,98462.80
2023-05-16T19:56:46.010Z,98463.89
2023-05-16T20:01:49.392Z,98473.04
2023-05-16T20:06:51.877Z,98465.64
2023-05-16T20:11:53.841Z,98457.88
2023-05-16T20:16:56.381Z,98449.64
2023-05-16T20:21:58.102Z,98448.98
2023-05-16T20:26:59.909Z,98449.52
2023-05-16T20:32:04.072Z,98457.31
2023-05-16T20:37:05.973Z,98454.77
2023-05-16T20:42:11.254Z,98457.34
2023-05-16T20:47:13.165Z,98449.63
2023-05-16T20:52:14.937Z,98441.70
2023-05-16T20:57:17.811Z,98437.23
2023-05-16T21:02:19.620Z,98434.84
2023-05-16T21:07:22.960Z,98430.88
2023-05-16T21:12:25.695Z,98429.17
2023-05-16T21:17:29.240Z,98430.21
2023-05-16T21:22:31.010Z,98428.66
2023-05-16T21:27:33.107Z,98423.52
2023-05-16T21:32:34.958Z,98419.56
2023-05-16T21:37:36.810Z,98423.34
2023-05-16T21:42:39.131Z,98430.92
2023-05-16T21:47:46.505Z,98427.82
2023-05-16T21:52:49.841Z,98424.38
2023-05-16T21:57:51.529Z,98418.70
2023-05-16T22:02:53.723Z,98418.02
2023-05-16T22:07:55.940Z,98420.76
2023-05-16T22:12:57.675Z,98425.59
2023-05-16T22:17:59.528Z,98425.41
2023-05-16T22:23:01.496Z,98425.56
2023-05-16T22:28:03.377Z,98423.67
2023-05-16T22:33:05.175Z,98423.15
2023-05-16T22:38:07.022Z,98428.49
2023-05-16T22:43:08.958Z,98427.13
2023-05-16T22:48:10.754Z,98433.67
2023-05-16T22:53:12.646Z,98437.30
2023-05-16T22:58:14.378Z,98437.12
2023-05-16T23:03:16.115Z,98444.52
2023-05-16T23:08:18.181Z,98452.62
2023-05-16T23:13:21.686Z,98454.51
2023-05-16T23:18:23.532Z,98458.98
2023-05-16T23:23:25.492Z,98457.61
2023-05-16T23:28:27.257Z,98442.64
2023-05-16T23:33:29.052Z,98442.45
2023-05-16T23:38:31.568Z,98451.75
2023-05-16T23:43:34.092Z,98453.81
2023-05-16T23:48:37.543Z,98462.06
2023-05-16T23:53:39.415Z,98470.50
2023-05-16T23:58:41.147Z,98476.36
